createdAt,value
2022-12-31T00:01:34.082Z,3.26
2022-12-31T00:04:02.583Z,3.30
2022-12-31T00:06:32.751Z,3.35
2022-12-31T00:09:03.724Z,3.32
2022-12-31T00:11:33.356Z,3.29
2022-12-31T00:14:02.431Z,3.28
2022-12-31T00:16:37.117Z,3.25
2022-12-31T00:19:07.760Z,3.26
2022-12-31T00:21:36.303Z,3.25
2022-12-31T00:24:05.250Z,3.24
2022-12-31T00:26:35.477Z,3.24
2022-12-31T00:29:04.869Z,3.26
2022-12-31T00:31:36.254Z,3.26
2022-12-31T00:34:05.925Z,3.25
2022-12-31T00:36:37.606Z,3.27
2022-12-31T00:39:08.419Z,3.29
2022-12-31T00:41:36.741Z,3.29
2022-12-31T00:44:05.039Z,3.25
2022-12-31T00:46:33.591Z,3.31
2022-12-31T00:49:01.714Z,3.24
2022-12-31T00:51:29.952Z,3.28
2022-12-31T00:53:58.853Z,3.27
2022-12-31T00:56:29.503Z,3.28
2022-12-31T00:58:58.193Z,3.30
2022-12-31T01:01:34.354Z,3.24
2022-12-31T01:04:09.792Z,3.35
2022-12-31T01:06:39.468Z,3.33
2022-12-31T01:09:08.882Z,3.35
2022-12-31T01:11:37.394Z,3.30
2022-12-31T01:14:09.856Z,3.31
2022-12-31T01:16:42.476Z,3.22
2022-12-31T01:19:14.890Z,3.24
2022-12-31T01:21:44.233Z,3.29
2022-12-31T01:24:13.232Z,3.26
2022-12-31T01:26:41.956Z,3.23
2022-12-31T01:29:11.626Z,3.19
2022-12-31T01:31:40.188Z,3.22
2022-12-31T01:34:08.493Z,3.23
2022-12-31T01:36:37.910Z,3.26
2022-12-31T01:39:08.250Z,3.24
2022-12-31T01:41:39.234Z,3.25
2022-12-31T01:44:13.563Z,3.26
2022-12-31T01:46:46.762Z,3.26
2022-12-31T01:49:22.774Z,3.26
2022-12-31T01:52:00.507Z,3.29
2022-12-31T01:54:33.143Z,3.25
2022-12-31T01:57:02.073Z,3.28
2022-12-31T01:59:31.700Z,3.23
2022-12-31T02:02:01.125Z,3.28
2022-12-31T02:04:30.235Z,3.26
2022-12-31T02:07:07.890Z,3.29
2022-12-31T02:09:39.400Z,3.28
2022-12-31T02:12:08.961Z,3.26
2022-12-31T02:14:44.598Z,3.28
2022-12-31T02:17:24.731Z,3.33
2022-12-31T02:20:58.394Z,3.31
2022-12-31T02:23:35.569Z,3.21
2022-12-31T02:26:31.126Z,3.26
2022-12-31T02:29:17.234Z,3.25
2022-12-31T02:31:55.038Z,3.26
2022-12-31T02:34:54.824Z,3.26
2022-12-31T02:37:27.582Z,3.26
2022-12-31T02:39:57.649Z,3.26
2022-12-31T02:42:26.138Z,3.27
2022-12-31T02:44:54.467Z,3.25
2022-12-31T02:47:53.592Z,3.26
2022-12-31T02:50:28.336Z,3.26
2022-12-31T02:53:15.314Z,3.21
2022-12-31T02:56:09.976Z,3.22
2022-12-31T02:59:32.585Z,3.23
2022-12-31T03:02:15.870Z,3.25
2022-12-31T03:04:49.734Z,3.25
2022-12-31T03:07:21.794Z,3.24
2022-12-31T03:09:51.026Z,3.21
2022-12-31T03:12:41.095Z,3.23
2022-12-31T03:15:19.882Z,3.24
2022-12-31T03:17:51.593Z,3.24
2022-12-31T03:20:39.901Z,3.27
2022-12-31T03:23:11.677Z,3.26
2022-12-31T03:25:40.516Z,3.23
2022-12-31T03:28:14.830Z,3.20
2022-12-31T03:30:45.712Z,3.22
2022-12-31T03:33:14.161Z,3.22
2022-12-31T03:35:44.343Z,3.25
2022-12-31T03:38:12.886Z,3.23
2022-12-31T03:40:52.908Z,3.26
2022-12-31T03:43:21.096Z,3.26
2022-12-31T03:45:53.844Z,3.28
2022-12-31T03:48:23.330Z,3.29
2022-12-31T03:50:51.973Z,3.29
2022-12-31T03:53:20.173Z,3.30
2022-12-31T03:55:53.258Z,3.30
2022-12-31T03:58:22.574Z,3.25
2022-12-31T04:00:51.270Z,3.28
2022-12-31T04:03:19.847Z,3.25
2022-12-31T04:05:55.722Z,3.26
2022-12-31T04:08:24.713Z,3.28
2022-12-31T04:10:52.726Z,3.23
2022-12-31T04:13:21.440Z,3.27
2022-12-31T04:15:51.942Z,3.27
2022-12-31T04:18:20.287Z,3.26
2022-12-31T04:20:48.420Z,3.26
2022-12-31T04:23:17.295Z,3.27
2022-12-31T04:25:45.316Z,3.25
2022-12-31T04:28:13.444Z,3.21
2022-12-31T04:30:42.117Z,3.23
2022-12-31T04:33:10.219Z,3.18
2022-12-31T04:35:38.347Z,3.19
2022-12-31T04:38:06.927Z,3.19
2022-12-31T04:40:35.161Z,3.25
2022-12-31T04:43:03.397Z,3.23
2022-12-31T04:45:31.723Z,3.23
2022-12-31T04:47:59.804Z,3.23
2022-12-31T04:50:27.920Z,3.28
2022-12-31T04:52:56.231Z,3.27
2022-12-31T04:55:24.452Z,3.26
2022-12-31T04:57:52.612Z,3.30
2022-12-31T05:00:21.197Z,3.23
2022-12-31T05:02:49.603Z,3.23
2022-12-31T05:05:17.724Z,3.25
2022-12-31T05:07:46.098Z,3.29
2022-12-31T05:10:14.610Z,3.28
2022-12-31T05:12:42.639Z,3.23
2022-12-31T05:15:11.100Z,3.21
2022-12-31T05:17:39.171Z,3.22
2022-12-31T05:20:07.940Z,3.23
2022-12-31T05:22:36.706Z,3.24
2022-12-31T05:25:05.711Z,3.22
2022-12-31T05:27:34.123Z,3.24
2022-12-31T05:30:02.678Z,3.25
2022-12-31T05:32:31.354Z,3.27
2022-12-31T05:35:00.301Z,3.27
2022-12-31T05:37:29.902Z,3.22
2022-12-31T05:39:58.439Z,3.22
2022-12-31T05:42:26.847Z,3.23
2022-12-31T05:44:55.261Z,3.22
2022-12-31T05:47:23.901Z,3.22
2022-12-31T05:49:52.031Z,3.19
2022-12-31T05:52:20.860Z,3.21
2022-12-31T05:54:48.829Z,3.23
2022-12-31T05:57:16.995Z,3.29
2022-12-31T05:59:45.519Z,3.26
2022-12-31T06:02:13.739Z,3.22
2022-12-31T06:04:42.223Z,3.17
2022-12-31T06:07:10.244Z,3.18
2022-12-31T06:09:39.034Z,3.15
2022-12-31T06:12:07.506Z,3.18
2022-12-31T06:14:37.619Z,3.22
2022-12-31T06:17:09.421Z,3.22
2022-12-31T06:19:37.609Z,3.23
2022-12-31T06:22:05.808Z,3.22
2022-12-31T06:24:34.377Z,3.21
2022-12-31T06:27:02.573Z,3.19
2022-12-31T06:29:30.666Z,3.19
2022-12-31T06:31:59.206Z,3.19
2022-12-31T06:34:27.376Z,3.16
2022-12-31T06:36:55.482Z,3.13
2022-12-31T06:39:24.024Z,3.12
2022-12-31T06:41:52.190Z,3.13
2022-12-31T06:44:22.519Z,3.20
2022-12-31T06:46:51.994Z,3.26
2022-12-31T06:49:20.428Z,3.24
2022-12-31T06:51:48.721Z,3.17
2022-12-31T06:54:17.133Z,3.14
2022-12-31T06:56:45.535Z,3.11
2022-12-31T06:59:25.375Z,3.15
2022-12-31T07:02:08.423Z,3.16
2022-12-31T07:04:56.892Z,3.20
2022-12-31T07:07:38.738Z,3.21
2022-12-31T07:10:29.990Z,3.25
2022-12-31T07:13:10.943Z,3.26
2022-12-31T07:16:03.073Z,3.25
2022-12-31T07:18:43.596Z,3.28
2022-12-31T07:21:13.963Z,3.26
2022-12-31T07:23:43.427Z,3.30
2022-12-31T07:26:23.694Z,3.29
2022-12-31T07:29:12.333Z,3.31
2022-12-31T07:31:48.964Z,3.28
2022-12-31T07:34:44.734Z,3.20
2022-12-31T07:37:44.973Z,3.28
2022-12-31T07:40:24.377Z,3.30
2022-12-31T07:42:58.258Z,3.32
2022-12-31T07:45:38.464Z,3.27
2022-12-31T07:48:21.367Z,3.34
2022-12-31T07:50:50.999Z,3.36
2022-12-31T07:53:19.461Z,3.35
2022-12-31T07:55:58.311Z,3.29
2022-12-31T07:58:42.861Z,3.32
2022-12-31T08:01:16.946Z,3.38
2022-12-31T08:03:55.439Z,3.38
2022-12-31T08:06:35.648Z,3.46
2022-12-31T08:09:11.328Z,3.53
2022-12-31T08:12:00.569Z,3.61
2022-12-31T08:14:29.878Z,3.66
2022-12-31T08:16:58.520Z,3.73
2022-12-31T08:19:28.677Z,3.79
2022-12-31T08:22:17.297Z,3.68
2022-12-31T08:25:06.907Z,3.64
2022-12-31T08:28:09.094Z,3.68
2022-12-31T08:30:55.243Z,3.73
2022-12-31T08:33:35.418Z,3.76
2022-12-31T08:36:20.843Z,3.74
2022-12-31T08:39:02.879Z,3.70
2022-12-31T08:41:42.447Z,3.73
2022-12-31T08:44:25.823Z,3.69
2022-12-31T08:47:02.637Z,3.66
2022-12-31T08:49:34.920Z,3.68
2022-12-31T08:52:04.186Z,3.73
2022-12-31T08:54:32.916Z,3.73
2022-12-31T08:57:25.254Z,3.80
2022-12-31T09:00:07.107Z,3.74
2022-12-31T09:02:47.730Z,3.79
2022-12-31T09:05:20.021Z,3.82
2022-12-31T09:08:03.409Z,3.84
2022-12-31T09:10:57.236Z,3.97
2022-12-31T09:13:48.763Z,4.03
2022-12-31T09:16:20.885Z,4.12
2022-12-31T09:18:48.990Z,4.21
2022-12-31T09:21:17.498Z,4.30
2022-12-31T09:23:45.985Z,4.31
2022-12-31T09:26:29.590Z,4.41
2022-12-31T09:29:16.363Z,4.40
2022-12-31T09:32:23.972Z,4.47
2022-12-31T09:35:04.191Z,4.44
2022-12-31T09:37:44.313Z,4.39
2022-12-31T09:40:50.313Z,4.48
2022-12-31T09:43:18.521Z,4.61
2022-12-31T09:46:05.659Z,4.66
2022-12-31T09:48:58.801Z,4.61
2022-12-31T09:51:55.828Z,4.69
2022-12-31T09:54:45.329Z,4.57
2022-12-31T09:57:16.611Z,4.57
2022-12-31T10:00:11.424Z,4.57
2022-12-31T10:03:18.516Z,4.62
2022-12-31T10:06:08.650Z,4.81
2022-12-31T10:09:10.748Z,4.71
2022-12-31T10:11:47.931Z,4.74
2022-12-31T10:14:45.448Z,4.91
2022-12-31T10:17:27.239Z,4.90
2022-12-31T10:20:08.984Z,4.90
2022-12-31T10:23:21.605Z,5.08
2022-12-31T10:26:16.190Z,5.03
2022-12-31T10:29:11.768Z,4.95
2022-12-31T10:31:58.114Z,4.97
2022-12-31T10:34:34.696Z,5.06
2022-12-31T10:37:11.040Z,5.18
2022-12-31T10:40:18.207Z,5.20
2022-12-31T10:43:04.682Z,5.23
2022-12-31T10:45:57.436Z,5.26
2022-12-31T10:48:37.292Z,5.27
2022-12-31T10:51:19.277Z,5.22
2022-12-31T10:54:15.361Z,5.22
2022-12-31T10:56:58.665Z,5.14
2022-12-31T10:59:29.540Z,5.09
2022-12-31T11:01:58.019Z,5.06
2022-12-31T11:04:41.127Z,4.98
2022-12-31T11:07:26.130Z,5.04
2022-12-31T11:10:32.453Z,5.10
2022-12-31T11:13:35.864Z,5.09
2022-12-31T11:16:12.601Z,5.12
2022-12-31T11:19:07.300Z,5.17
2022-12-31T11:21:53.133Z,5.19
2022-12-31T11:24:27.235Z,5.19
2022-12-31T11:27:42.703Z,5.20
2022-12-31T11:30:41.256Z,5.27
2022-12-31T11:33:36.698Z,5.33
2022-12-31T11:36:13.842Z,5.40
2022-12-31T11:38:54.027Z,5.50
2022-12-31T11:41:39.687Z,5.61
2022-12-31T11:44:23.715Z,5.53
2022-12-31T11:47:02.359Z,5.54
2022-12-31T11:49:55.937Z,5.70
2022-12-31T11:52:37.633Z,5.74
2022-12-31T11:55:36.561Z,5.75
2022-12-31T11:58:13.478Z,5.85
2022-12-31T12:00:49.177Z,5.83
2022-12-31T12:03:17.774Z,5.86
2022-12-31T12:05:45.999Z,5.92
2022-12-31T12:08:15.472Z,5.90
2022-12-31T12:11:00.810Z,5.83
2022-12-31T12:13:29.080Z,5.94
2022-12-31T12:16:00.835Z,5.91
2022-12-31T12:18:40.873Z,5.78
2022-12-31T12:21:16.786Z,5.73
2022-12-31T12:24:06.983Z,5.79
2022-12-31T12:26:42.129Z,5.81
2022-12-31T12:29:14.484Z,5.78
2022-12-31T12:31:56.315Z,5.80
2022-12-31T12:34:30.814Z,5.82
2022-12-31T12:36:59.699Z,5.87
2022-12-31T12:39:34.111Z,5.80
2022-12-31T12:42:10.207Z,5.72
2022-12-31T12:44:38.861Z,5.76
2022-12-31T12:47:15.010Z,5.81
2022-12-31T12:49:53.353Z,5.74
2022-12-31T12:52:56.375Z,5.74
2022-12-31T12:55:46.838Z,5.74
2022-12-31T12:58:43.404Z,5.86
2022-12-31T13:01:37.462Z,5.82
2022-12-31T13:04:40.204Z,5.96
2022-12-31T13:07:24.413Z,5.97
2022-12-31T13:10:16.555Z,5.94
2022-12-31T13:13:22.728Z,5.97
2022-12-31T13:15:53.882Z,5.96
2022-12-31T13:18:33.513Z,5.96
2022-12-31T13:21:27.090Z,5.92
2022-12-31T13:24:04.527Z,5.91
2022-12-31T13:26:39.779Z,5.95
2022-12-31T13:29:13.698Z,5.97
2022-12-31T13:31:43.454Z,5.90
2022-12-31T13:34:20.954Z,5.88
2022-12-31T13:36:51.767Z,5.88
2022-12-31T13:39:26.104Z,5.87
2022-12-31T13:42:20.805Z,5.87
2022-12-31T13:45:10.347Z,5.87
2022-12-31T13:47:45.401Z,5.84
2022-12-31T13:50:28.401Z,5.95
2022-12-31T13:53:06.111Z,5.92
2022-12-31T13:55:41.704Z,5.88
2022-12-31T13:58:53.212Z,5.84
2022-12-31T14:01:33.457Z,5.85
2022-12-31T14:04:14.497Z,6.01
2022-12-31T14:06:56.505Z,6.01
2022-12-31T14:09:28.092Z,6.00
2022-12-31T14:12:19.588Z,6.01
2022-12-31T14:15:29.303Z,6.07
2022-12-31T14:18:06.007Z,6.01
2022-12-31T14:20:34.412Z,5.91
2022-12-31T14:23:41.289Z,5.94
2022-12-31T14:26:41.936Z,5.89
2022-12-31T14:29:10.201Z,5.82
2022-12-31T14:31:53.768Z,5.86
2022-12-31T14:34:30.690Z,5.88
2022-12-31T14:37:18.691Z,5.88
2022-12-31T14:40:05.839Z,5.89
2022-12-31T14:43:05.629Z,5.87
2022-12-31T14:46:02.044Z,5.85
2022-12-31T14:48:54.745Z,5.84
2022-12-31T14:51:30.994Z,5.82
2022-12-31T14:54:00.099Z,5.82
2022-12-31T14:56:40.195Z,5.85
2022-12-31T14:59:27.775Z,5.84
2022-12-31T15:01:58.159Z,5.83
2022-12-31T15:04:43.403Z,5.84
2022-12-31T15:07:21.552Z,5.91
2022-12-31T15:10:10.431Z,5.92
2022-12-31T15:12:56.613Z,5.97
2022-12-31T15:16:02.318Z,5.97
2022-12-31T15:18:45.720Z,5.89
2022-12-31T15:21:26.553Z,5.84
2022-12-31T15:23:55.291Z,5.81
2022-12-31T15:26:34.810Z,5.80
2022-12-31T15:29:08.150Z,5.83
2022-12-31T15:31:45.169Z,5.80
2022-12-31T15:34:33.846Z,5.76
2022-12-31T15:37:05.145Z,5.75
2022-12-31T15:39:43.227Z,5.73
2022-12-31T15:42:47.251Z,5.71
2022-12-31T15:45:24.633Z,5.71
2022-12-31T15:48:00.358Z,5.74
2022-12-31T15:50:29.675Z,5.71
2022-12-31T15:53:03.636Z,5.68
2022-12-31T15:55:54.450Z,5.71
2022-12-31T15:58:27.818Z,5.71
2022-12-31T16:01:03.498Z,5.64
2022-12-31T16:03:33.428Z,5.66
2022-12-31T16:06:04.155Z,5.61
2022-12-31T16:08:35.011Z,5.70
2022-12-31T16:11:06.069Z,5.77
2022-12-31T16:13:39.392Z,5.68
2022-12-31T16:16:19.774Z,5.61
2022-12-31T16:18:50.278Z,5.55
2022-12-31T16:21:34.782Z,5.51
2022-12-31T16:24:26.108Z,5.50
2022-12-31T16:26:57.239Z,5.49
2022-12-31T16:29:26.302Z,5.44
2022-12-31T16:31:54.792Z,5.42
2022-12-31T16:34:26.114Z,5.32
2022-12-31T16:37:02.912Z,5.22
2022-12-31T16:39:36.521Z,5.17
2022-12-31T16:42:13.998Z,5.20
2022-12-31T16:44:42.757Z,5.14
2022-12-31T16:47:18.697Z,5.14
2022-12-31T16:50:12.030Z,5.19
2022-12-31T16:52:43.461Z,5.18
2022-12-31T16:55:32.764Z,5.12
2022-12-31T16:58:18.801Z,5.05
2022-12-31T17:00:49.286Z,5.06
2022-12-31T17:03:23.131Z,5.09
2022-12-31T17:05:57.676Z,5.05
2022-12-31T17:08:29.282Z,5.02
2022-12-31T17:10:57.612Z,5.03
2022-12-31T17:13:34.050Z,5.04
2022-12-31T17:16:02.381Z,5.05
2022-12-31T17:18:36.955Z,5.13
2022-12-31T17:21:10.607Z,5.13
2022-12-31T17:23:41.016Z,5.09
2022-12-31T17:26:11.090Z,5.08
2022-12-31T17:28:47.993Z,5.04
2022-12-31T17:31:27.363Z,5.00
2022-12-31T17:34:13.827Z,4.96
2022-12-31T17:37:01.722Z,4.97
2022-12-31T17:40:40.638Z,4.80
2022-12-31T17:42:51.366Z,4.91
2022-12-31T17:45:22.396Z,4.78
2022-12-31T17:47:53.704Z,4.81
2022-12-31T17:50:24.620Z,4.81
2022-12-31T17:52:57.282Z,4.76
2022-12-31T17:55:26.749Z,4.73
2022-12-31T17:57:57.762Z,4.78
2022-12-31T18:00:27.277Z,4.76
2022-12-31T18:02:56.103Z,4.78
2022-12-31T18:05:25.339Z,4.79
2022-12-31T18:07:54.141Z,4.86
2022-12-31T18:10:25.005Z,4.82
2022-12-31T18:12:53.639Z,4.76
2022-12-31T18:15:23.598Z,4.75
2022-12-31T18:17:52.232Z,4.70
2022-12-31T18:20:20.668Z,4.62
2022-12-31T18:22:48.876Z,4.54
2022-12-31T18:25:20.785Z,4.47
2022-12-31T18:27:50.505Z,4.46
2022-12-31T18:30:19.437Z,4.60
2022-12-31T18:32:47.795Z,4.56
2022-12-31T18:35:49.041Z,4.48
2022-12-31T18:38:14.325Z,4.58
2022-12-31T18:40:46.923Z,4.57
2022-12-31T18:43:17.662Z,4.54
2022-12-31T18:45:47.131Z,4.50
2022-12-31T18:48:16.621Z,4.38
2022-12-31T18:50:46.302Z,4.42
2022-12-31T18:53:23.355Z,4.48
2022-12-31T18:55:56.751Z,4.42
2022-12-31T18:58:25.198Z,4.39
2022-12-31T19:00:54.286Z,4.40
2022-12-31T19:03:27.263Z,4.45
2022-12-31T19:05:55.975Z,4.46
2022-12-31T19:08:24.358Z,4.47
2022-12-31T19:10:52.594Z,4.46
2022-12-31T19:13:22.907Z,4.41
2022-12-31T19:15:53.369Z,4.46
2022-12-31T19:18:21.891Z,4.45
2022-12-31T19:20:52.103Z,4.40
2022-12-31T19:23:22.439Z,4.36
2022-12-31T19:25:51.032Z,4.38
2022-12-31T19:28:20.464Z,4.33
2022-12-31T19:30:48.991Z,4.41
2022-12-31T19:33:18.428Z,4.39
2022-12-31T19:35:47.228Z,4.35
2022-12-31T19:38:21.944Z,4.38
2022-12-31T19:40:50.615Z,4.45
2022-12-31T19:43:20.750Z,4.48
2022-12-31T19:45:50.593Z,4.51
2022-12-31T19:48:24.673Z,4.47
2022-12-31T19:50:57.148Z,4.50
2022-12-31T19:53:27.529Z,4.42
2022-12-31T19:55:55.580Z,4.34
2022-12-31T19:58:26.134Z,4.41
2022-12-31T20:01:02.365Z,4.49
2022-12-31T20:03:35.329Z,4.50
2022-12-31T20:06:06.636Z,4.52
2022-12-31T20:08:36.710Z,4.56
2022-12-31T20:11:12.233Z,4.55
2022-12-31T20:13:41.541Z,4.56
2022-12-31T20:16:12.712Z,4.54
2022-12-31T20:18:42.247Z,4.48
2022-12-31T20:21:14.015Z,4.42
2022-12-31T20:23:42.432Z,4.32
2022-12-31T20:26:10.801Z,4.26
2022-12-31T20:28:39.425Z,4.21
2022-12-31T20:31:10.471Z,4.13
2022-12-31T20:33:39.010Z,4.08
2022-12-31T20:36:09.722Z,4.13
2022-12-31T20:38:38.247Z,4.04
2022-12-31T20:41:18.768Z,3.94
2022-12-31T20:43:48.386Z,4.03
2022-12-31T20:46:20.300Z,3.92
2022-12-31T20:48:51.762Z,3.81
2022-12-31T20:51:21.319Z,3.77
2022-12-31T20:53:55.977Z,3.77
2022-12-31T20:56:26.443Z,3.84
2022-12-31T20:58:55.496Z,3.84
2022-12-31T21:01:25.186Z,3.81
2022-12-31T21:04:05.056Z,3.78
2022-12-31T21:06:35.866Z,3.77
2022-12-31T21:09:06.798Z,3.70
2022-12-31T21:11:53.906Z,3.79
2022-12-31T21:14:22.247Z,3.82
2022-12-31T21:16:50.839Z,3.76
2022-12-31T21:19:18.906Z,3.72
2022-12-31T21:21:48.312Z,3.64
2022-12-31T21:24:23.230Z,3.69
2022-12-31T21:26:55.571Z,3.74
2022-12-31T21:29:24.006Z,3.82
2022-12-31T21:31:52.854Z,3.78
2022-12-31T21:34:21.180Z,3.89
2022-12-31T21:36:49.478Z,3.97
2022-12-31T21:39:17.735Z,3.96
2022-12-31T21:41:51.738Z,3.94
2022-12-31T21:44:21.712Z,3.92
2022-12-31T21:47:40.961Z,3.96
2022-12-31T21:50:10.276Z,4.02
2022-12-31T21:52:41.745Z,3.94
2022-12-31T21:55:29.988Z,3.92
2022-12-31T22:01:07.142Z,3.78
2022-12-31T22:03:36.325Z,3.65
2022-12-31T22:06:13.143Z,3.55
2022-12-31T22:08:43.805Z,3.44
2022-12-31T22:11:12.884Z,3.47
2022-12-31T22:13:41.849Z,3.29
2022-12-31T22:16:11.226Z,3.13
2022-12-31T22:18:42.217Z,3.18
2022-12-31T22:21:19.224Z,3.20
2022-12-31T22:23:50.519Z,3.20
2022-12-31T22:26:21.396Z,3.15
2022-12-31T22:28:50.609Z,3.16
2022-12-31T22:31:21.604Z,3.18
2022-12-31T22:33:49.911Z,3.20
2022-12-31T22:36:21.021Z,3.21
2022-12-31T22:38:50.882Z,3.17
2022-12-31T22:41:21.643Z,3.10
2022-12-31T22:43:58.478Z,2.89
2022-12-31T22:46:31.573Z,2.68
2022-12-31T22:49:01.513Z,2.80
2022-12-31T22:51:56.079Z,2.82
2022-12-31T22:54:19.686Z,2.72
2022-12-31T22:56:48.149Z,2.62
2022-12-31T22:59:16.344Z,2.56
2022-12-31T23:01:44.821Z,2.56
2022-12-31T23:04:12.989Z,2.57
2022-12-31T23:06:43.986Z,2.67
2022-12-31T23:09:33.167Z,2.74
2022-12-31T23:12:02.421Z,2.76
2022-12-31T23:14:49.612Z,2.78
2022-12-31T23:17:42.008Z,3.08
2022-12-31T23:20:37.568Z,3.18
2022-12-31T23:23:12.535Z,3.25
2022-12-31T23:25:41.186Z,3.31
2022-12-31T23:28:12.970Z,3.41
2022-12-31T23:30:42.568Z,3.34
2022-12-31T23:33:17.090Z,3.28
2022-12-31T23:35:46.063Z,3.16
2022-12-31T23:38:16.679Z,3.05
2022-12-31T23:40:45.315Z,3.06
2022-12-31T23:43:21.129Z,3.04
2022-12-31T23:45:51.100Z,3.04
2022-12-31T23:48:19.829Z,2.97
2022-12-31T23:50:53.418Z,3.05
2022-12-31T23:53:24.025Z,3.01
2022-12-31T23:55:53.059Z,2.95
2022-12-31T23:58:22.350Z,2.96
